Time;durP1;ratioP1;P1;durP2;ratioP2;P2;SDS_P1;SDS_P2;PMS_P1;PMS_P2;Temp;Humidity;BMP_temperature;BMP_pressure;BME280_temperature;BME280_humidity;BME280_pressure;Samples;Min_cycle;Max_cycle;Signal;HPM_P1;HPM_P2
2022/04/18 00:01:40;;;;;;;0.55;0.47;;;;;;;21.45;32.08;99060.81;5091784;28;20040;-64
2022/04/18 00:04:05;;;;;;;0.60;0.50;;;;;;;21.45;31.97;99065.59;5091663;28;20396;-64
2022/04/18 00:06:35;;;;;;;0.70;0.50;;;;;;;21.46;31.96;99067.19;5091414;28;20051;-64
2022/04/18 00:09:01;;;;;;;0.88;0.57;;;;;;;21.43;31.72;99064.00;5091541;28;20064;-64
2022/04/18 00:11:27;;;;;;;0.88;0.47;;;;;;;21.44;32.05;99064.81;5091662;28;20469;-64
2022/04/18 00:13:52;;;;;;;0.65;0.50;;;;;;;21.45;32.08;99071.16;5091689;28;20613;-64
2022/04/18 00:16:17;;;;;;;0.80;0.50;;;;;;;21.44;31.84;99075.94;5091473;28;20066;-65
2022/04/18 00:18:43;;;;;;;0.60;0.40;;;;;;;21.43;31.81;99066.78;5091653;28;20055;-64
2022/04/18 00:21:08;;;;;;;0.68;0.47;;;;;;;21.46;31.77;99069.97;5091634;28;20040;-64
2022/04/18 00:23:34;;;;;;;0.80;0.60;;;;;;;21.38;31.74;99060.78;5091239;28;20048;-64
2022/04/18 00:25:59;;;;;;;0.85;0.50;;;;;;;21.43;31.89;99061.22;5091352;28;20044;-64
2022/04/18 00:28:24;;;;;;;0.50;0.50;;;;;;;21.43;31.61;99071.53;5091253;28;20044;-65
2022/04/18 00:30:50;;;;;;;0.68;0.45;;;;;;;21.41;31.72;99071.13;5093104;28;20040;-64
2022/04/18 00:33:15;;;;;;;0.75;0.50;;;;;;;21.42;31.45;99070.72;5091231;28;20135;-64
2022/04/18 00:35:41;;;;;;;0.57;0.40;;;;;;;21.42;31.50;99067.16;5072858;28;20040;-72
2022/04/18 00:38:06;;;;;;;0.50;0.40;;;;;;;21.42;31.41;99069.94;5091173;28;20487;-72
2022/04/18 00:40:32;;;;;;;0.73;0.52;;;;;;;21.42;31.46;99067.16;5091129;28;20044;-72
2022/04/18 00:43:01;;;;;;;0.65;0.43;;;;;;;21.41;31.67;99062.78;5091097;28;20040;-72
2022/04/18 00:45:27;;;;;;;0.60;0.50;;;;;;;21.40;31.64;99059.19;5091154;28;20040;-72
2022/04/18 00:47:52;;;;;;;0.60;0.50;;;;;;;21.41;31.67;99063.56;5091086;28;20052;-72
2022/04/18 00:50:19;;;;;;;0.85;0.40;;;;;;;21.40;31.33;99061.97;5091070;28;20075;-71
2022/04/18 00:52:45;;;;;;;0.52;0.40;;;;;;;21.39;31.45;99057.59;5091083;28;20063;-72
2022/04/18 00:55:11;;;;;;;0.73;0.57;;;;;;;21.41;31.56;99062.78;5091083;28;20109;-72
2022/04/18 00:57:38;;;;;;;0.38;0.30;;;;;;;21.40;31.46;99061.19;5093027;28;20040;-72
2022/04/18 01:00:04;;;;;;;0.70;0.40;;;;;;;21.39;31.22;99057.59;5091060;28;20048;-72
2022/04/18 01:02:30;;;;;;;0.57;0.40;;;;;;;21.39;31.13;99060.38;5090573;28;20510;-72
2022/04/18 01:04:55;;;;;;;0.60;0.47;;;;;;;21.38;31.09;99058.78;5090700;28;20055;-72
2022/04/18 01:07:21;;;;;;;0.77;0.43;;;;;;;21.36;30.93;99052.84;5090747;28;20056;-72
2022/04/18 01:09:47;;;;;;;0.60;0.50;;;;;;;21.37;31.13;99057.22;5089810;28;20044;-72
2022/04/18 01:12:12;;;;;;;1.00;0.60;;;;;;;21.38;31.25;99063.56;5090837;28;20044;-72
2022/04/18 01:14:37;;;;;;;0.50;0.40;;;;;;;21.37;31.05;99068.34;5090683;28;20036;-72
2022/04/18 01:17:03;;;;;;;0.73;0.47;;;;;;;21.34;31.08;99065.50;5090682;28;20040;-72
2022/04/18 01:19:29;;;;;;;0.47;0.40;;;;;;;21.37;31.03;99070.31;5090733;28;20091;-72
2022/04/18 01:21:54;;;;;;;0.70;0.40;;;;;;;21.36;31.13;99069.53;5092790;28;20088;-72
2022/04/18 01:29:49;;;;;;;0.65;0.40;;;;;;;21.35;31.20;99065.13;5090446;28;20565;-72
2022/04/18 01:32:14;;;;;;;1.13;0.50;;;;;;;21.32;31.14;99057.56;5090363;28;20052;-72
2022/04/18 01:34:39;;;;;;;0.60;0.30;;;;;;;21.34;30.83;99060.75;5090462;28;20066;-71
2022/04/18 01:37:05;;;;;;;0.60;0.38;;;;;;;21.35;30.64;99058.75;5090437;28;20036;-72
2022/04/18 01:39:30;;;;;;;0.47;0.30;;;;;;;21.34;30.72;99065.50;5090421;28;20056;-72
2022/04/18 01:41:56;;;;;;;0.65;0.40;;;;;;;21.33;30.92;99058.34;5090026;28;20414;-72
2022/04/18 01:44:21;;;;;;;0.45;0.40;;;;;;;21.33;31.04;99064.72;5090304;28;20070;-72
2022/04/18 01:46:46;;;;;;;0.38;0.32;;;;;;;21.34;30.81;99065.50;5090276;28;20440;-72
2022/04/18 01:49:12;;;;;;;0.73;0.40;;;;;;;21.33;30.83;99069.47;5092297;28;20052;-72
2022/04/18 01:51:37;;;;;;;0.77;0.50;;;;;;;21.32;30.71;99068.69;5090203;28;20048;-72
2022/04/18 01:54:03;;;;;;;0.52;0.38;;;;;;;21.32;30.59;99071.47;5089826;28;20065;-72
2022/04/18 01:56:28;;;;;;;0.50;0.40;;;;;;;21.32;30.37;99071.47;5092082;28;20571;-72
2022/04/18 01:58:53;;;;;;;0.65;0.45;;;;;;;21.31;30.63;99075.44;5073627;28;20416;-64
2022/04/18 02:01:19;;;;;;;0.73;0.50;;;;;;;21.32;30.83;99079.81;5090562;28;20044;-72
2022/04/18 02:03:45;;;;;;;0.30;0.30;;;;;;;21.31;30.58;99078.22;5089811;28;20429;-72
2022/04/18 02:06:11;;;;;;;0.73;0.55;;;;;;;21.32;30.76;99079.81;5089798;28;20113;-72
2022/04/18 02:08:36;;;;;;;0.50;0.40;;;;;;;21.30;30.64;99079.41;5089905;28;20102;-72
2022/04/18 02:11:04;;;;;;;0.90;0.50;;;;;;;21.31;30.61;99083.00;5089925;28;20093;-72
2022/04/18 02:13:29;;;;;;;0.50;0.40;;;;;;;21.30;30.49;99082.19;5089680;28;20048;-72
2022/04/18 02:15:57;;;;;;;0.50;0.47;;;;;;;21.31;30.70;99083.78;5089455;28;20087;-72
2022/04/18 02:18:23;;;;;;;0.60;0.50;;;;;;;21.30;30.56;99089.75;5089326;28;20040;-64
2022/04/18 02:20:49;;;;;;;0.80;0.50;;;;;;;21.31;30.51;99094.13;5089569;28;20047;-64
2022/04/18 02:23:15;;;;;;;0.73;0.40;;;;;;;21.28;30.42;99086.53;5089482;28;20054;-64
2022/04/18 02:25:41;;;;;;;0.52;0.40;;;;;;;21.27;30.55;99087.69;5089675;28;20516;-65
2022/04/18 02:28:07;;;;;;;0.55;0.40;;;;;;;21.28;30.60;99095.66;5089205;28;20054;-64
2022/04/18 02:30:32;;;;;;;0.50;0.45;;;;;;;21.28;30.55;99092.09;5101317;28;20502;-64
2022/04/18 02:32:59;;;;;;;1.00;0.60;;;;;;;21.28;30.33;99098.44;5091441;28;20040;-70
2022/04/18 02:35:25;;;;;;;0.50;0.40;;;;;;;21.29;30.62;99096.47;5089295;28;20063;-72
2022/04/18 02:37:52;;;;;;;0.55;0.40;;;;;;;21.28;30.60;99095.66;5089325;28;20527;-64
2022/04/18 02:40:19;;;;;;;0.50;0.30;;;;;;;21.28;30.67;99092.09;5089240;28;20044;-64
2022/04/18 02:42:44;;;;;;;0.47;0.40;;;;;;;21.27;30.42;99096.81;5089327;28;20040;-64
2022/04/18 02:45:14;;;;;;;0.40;0.35;;;;;;;21.27;30.70;99104.38;5089517;28;20048;-64
2022/04/18 02:47:40;;;;;;;0.40;0.35;;;;;;;21.27;30.41;99105.16;5089195;28;20052;-64
2022/04/18 02:50:07;;;;;;;0.75;0.40;;;;;;;21.26;30.56;99103.56;5089059;28;20113;-64
2022/04/18 02:52:32;;;;;;;0.40;0.30;;;;;;;21.24;30.69;99096.81;5088929;28;20052;-65
2022/04/18 02:54:58;;;;;;;0.68;0.50;;;;;;;21.26;30.62;99097.22;5089272;28;20044;-64
2022/04/18 02:57:23;;;;;;;0.47;0.38;;;;;;;21.26;30.64;99097.22;5089162;28;20106;-64
2022/04/18 02:59:49;;;;;;;0.38;0.38;;;;;;;21.25;30.67;99098.41;5089249;28;20380;-64
2022/04/18 03:02:14;;;;;;;0.43;0.40;;;;;;;21.24;30.65;99096.81;5089200;28;20521;-72
2022/04/18 03:04:40;;;;;;;0.40;0.40;;;;;;;21.25;30.67;99096.41;5089118;28;20092;-72
2022/04/18 03:07:05;;;;;;;0.57;0.40;;;;;;;21.24;30.46;99094.81;5089035;28;20067;-72
2022/04/18 03:09:31;;;;;;;0.47;0.30;;;;;;;21.26;30.58;99097.22;5089122;28;20040;-64
2022/04/18 03:11:57;;;;;;;0.60;0.40;;;;;;;21.24;30.89;99099.59;5088981;28;20545;-64
2022/04/18 03:14:23;;;;;;;0.38;0.38;;;;;;;21.21;30.59;99095.56;5088991;28;20048;-64
2022/04/18 03:16:48;;;;;;;1.20;0.50;;;;;;;21.24;30.56;99100.38;5088616;28;20052;-64
2022/04/18 03:19:14;;;;;;;0.60;0.40;;;;;;;21.24;30.70;99094.03;5088885;28;20041;-64
2022/04/18 03:21:40;;;;;;;0.73;0.40;;;;;;;21.23;30.78;99095.22;5088651;28;20048;-64
2022/04/18 03:24:07;;;;;;;0.47;0.38;;;;;;;21.23;30.77;99103.56;5088857;28;20047;-64
2022/04/18 03:26:33;;;;;;;0.47;0.35;;;;;;;21.21;30.42;99098.34;5088823;28;20522;-64
2022/04/18 03:28:58;;;;;;;0.55;0.40;;;;;;;21.20;30.70;99099.56;5098112;28;20035;-64
2022/04/18 03:31:24;;;;;;;0.98;0.40;;;;;;;21.20;30.56;99104.31;5090068;28;20048;-64
2022/04/18 03:33:49;;;;;;;0.68;0.40;;;;;;;21.21;30.51;99106.69;5092216;28;20051;-72
2022/04/18 03:41:43;;;;;;;0.50;0.30;;;;;;;21.19;30.87;99094.38;5092414;28;20047;-71
2022/04/18 03:44:11;;;;;;;0.80;0.40;;;;;;;21.19;30.79;99092.41;5092113;28;20036;-72
2022/04/18 03:46:37;;;;;;;0.60;0.40;;;;;;;21.17;30.77;99090.00;5092045;28;20181;-72
2022/04/18 03:49:02;;;;;;;0.63;0.40;;;;;;;21.16;30.61;99091.19;5092017;28;20135;-71
2022/04/18 03:51:28;;;;;;;0.50;0.35;;;;;;;21.16;30.80;99085.63;5092050;28;20419;-72
2022/04/18 03:53:53;;;;;;;0.32;0.30;;;;;;;21.17;30.74;99090.00;5091953;28;20040;-72
2022/04/18 03:56:19;;;;;;;0.28;0.28;;;;;;;21.16;30.69;99096.75;5091870;28;20040;-72
2022/04/18 03:58:44;;;;;;;0.50;0.40;;;;;;;21.18;30.66;99096.38;5091943;28;20044;-72
2022/04/18 04:01:10;;;;;;;0.85;0.52;;;;;;;21.17;30.80;99089.22;5091505;28;20465;-64
2022/04/18 04:03:35;;;;;;;0.40;0.40;;;;;;;21.19;30.83;99089.59;5093899;28;20044;-64
2022/04/18 04:06:00;;;;;;;0.65;0.40;;;;;;;21.19;30.83;99092.41;5091489;28;20056;-64
2022/04/18 04:08:28;;;;;;;0.80;0.45;;;;;;;21.18;30.69;99099.13;5091647;28;20059;-64
2022/04/18 04:10:54;;;;;;;0.82;0.47;;;;;;;21.18;30.99;99093.59;5091856;28;20048;-64
2022/04/18 04:13:20;;;;;;;0.47;0.40;;;;;;;21.18;30.87;99101.91;5091777;28;20044;-64
2022/04/18 04:15:45;;;;;;;0.52;0.40;;;;;;;21.18;30.60;99104.72;5091542;28;20047;-71
2022/04/18 04:18:11;;;;;;;0.43;0.30;;;;;;;21.19;30.97;99105.50;5091472;28;20423;-72
2022/04/18 04:20:37;;;;;;;0.52;0.40;;;;;;;21.17;30.74;99105.91;5091565;28;20127;-72
2022/04/18 04:23:03;;;;;;;0.85;0.45;;;;;;;21.18;30.80;99110.28;5091607;28;20044;-72
2022/04/18 04:25:28;;;;;;;0.52;0.28;;;;;;;21.17;31.01;99108.69;5091620;28;20048;-72
2022/04/18 04:27:54;;;;;;;0.50;0.38;;;;;;;21.16;30.74;99113.44;5093514;28;20231;-72
2022/04/18 04:30:20;;;;;;;0.32;0.32;;;;;;;21.13;31.00;99107.84;5091268;28;20104;-71
2022/04/18 04:32:45;;;;;;;0.35;0.30;;;;;;;21.14;30.73;99106.66;5091320;28;20389;-64
2022/04/18 04:35:11;;;;;;;0.77;0.40;;;;;;;21.12;30.68;99109.81;5091076;28;20044;-64
2022/04/18 04:37:36;;;;;;;0.30;0.28;;;;;;;21.14;30.87;99113.00;5091196;28;20052;-64
2022/04/18 04:40:02;;;;;;;0.55;0.40;;;;;;;21.14;30.60;99117.78;5091138;28;20051;-72
2022/04/18 04:42:28;;;;;;;0.30;0.30;;;;;;;21.13;30.59;99116.19;5090767;28;20506;-72
2022/04/18 04:44:53;;;;;;;0.57;0.40;;;;;;;21.12;30.78;99109.03;5090437;28;20055;-72
2022/04/18 04:47:19;;;;;;;0.40;0.40;;;;;;;21.13;30.88;99113.41;5091167;28;20048;-72
2022/04/18 04:49:44;;;;;;;0.60;0.47;;;;;;;21.12;30.79;99109.81;5091038;28;20058;-72
2022/04/18 04:52:09;;;;;;;0.30;0.30;;;;;;;21.11;30.80;99111.00;5090921;28;20044;-64
2022/04/18 04:54:35;;;;;;;0.45;0.40;;;;;;;21.12;30.59;99111.81;5090935;28;20036;-64
2022/04/18 04:57:01;;;;;;;0.55;0.45;;;;;;;21.11;30.86;99115.78;5101014;28;20123;-64
2022/04/18 04:59:26;;;;;;;0.40;0.32;;;;;;;21.10;30.82;99114.97;5090941;28;20040;-64
2022/04/18 05:01:52;;;;;;;0.50;0.30;;;;;;;21.10;31.09;99119.75;5090572;28;20044;-64
2022/04/18 05:04:17;;;;;;;0.43;0.30;;;;;;;21.11;30.66;99122.13;5090588;28;20040;-64
2022/04/18 05:06:43;;;;;;;0.50;0.40;;;;;;;21.08;30.88;99114.56;5100207;28;20404;-64
2022/04/18 05:09:08;;;;;;;0.38;0.28;;;;;;;21.10;30.94;99125.28;5104244;28;20097;-64
2022/04/18 05:11:34;;;;;;;0.38;0.28;;;;;;;21.11;30.72;99130.47;5090819;28;20269;-72
2022/04/18 05:13:59;;;;;;;0.68;0.40;;;;;;;21.10;30.76;99134.44;5090740;28;20422;-71
2022/04/18 05:16:25;;;;;;;0.70;0.45;;;;;;;21.10;30.77;99136.41;5090542;28;20063;-72
2022/04/18 05:18:51;;;;;;;0.50;0.30;;;;;;;21.09;30.53;99126.50;5090764;28;20463;-72
2022/04/18 05:21:16;;;;;;;0.77;0.40;;;;;;;21.10;30.75;99125.28;5090717;28;20044;-64
2022/04/18 05:23:42;;;;;;;0.57;0.40;;;;;;;21.08;30.94;99134.03;5072109;28;20058;-64
2022/04/18 05:26:08;;;;;;;0.30;0.30;;;;;;;21.12;31.03;99136.81;5090240;28;20088;-64
2022/04/18 05:28:33;;;;;;;0.60;0.40;;;;;;;21.12;30.73;99137.63;5090451;28;20093;-64
2022/04/18 05:30:58;;;;;;;0.60;0.30;;;;;;;21.10;31.16;99142.78;5090250;28;20044;-64
2022/04/18 05:33:24;;;;;;;0.47;0.45;;;;;;;21.11;30.91;99146.34;5090484;28;20047;-66
2022/04/18 05:35:50;;;;;;;0.50;0.40;;;;;;;21.11;30.96;99154.69;5090369;28;20135;-64
2022/04/18 05:38:16;;;;;;;0.40;0.40;;;;;;;21.11;31.34;99151.91;5090321;28;20499;-64
2022/04/18 05:40:42;;;;;;;0.38;0.35;;;;;;;21.09;31.24;99145.94;5090022;28;20042;-64
2022/04/18 05:43:08;;;;;;;0.57;0.47;;;;;;;21.10;31.54;99151.13;5090301;28;20040;-64
2022/04/18 05:45:36;;;;;;;0.47;0.40;;;;;;;21.10;31.46;99150.31;5090717;28;20079;-64
2022/04/18 05:48:01;;;;;;;0.70;0.40;;;;;;;21.11;31.34;99146.34;5090322;28;20044;-72
2022/04/18 05:50:27;;;;;;;0.68;0.50;;;;;;;21.11;31.49;99146.34;5090167;28;20036;-72
2022/04/18 05:52:52;;;;;;;1.25;0.47;;;;;;;21.10;31.85;99153.91;5090357;28;20522;-72
2022/04/18 05:55:17;;;;;;;0.50;0.50;;;;;;;21.11;31.81;99152.72;5089587;28;20527;-64
2022/04/18 05:57:43;;;;;;;0.35;0.22;;;;;;;21.08;31.61;99156.28;5089735;28;20048;-64
2022/04/18 06:00:09;;;;;;;0.77;0.50;;;;;;;21.09;31.58;99152.31;5089957;28;20048;-64
2022/04/18 06:02:34;;;;;;;0.60;0.50;;;;;;;21.10;31.83;99156.69;5090010;28;20047;-64
2022/04/18 06:04:59;;;;;;;0.85;0.55;;;;;;;21.11;31.96;99158.28;5089934;28;20044;-72
2022/04/18 06:07:25;;;;;;;0.60;0.50;;;;;;;21.13;31.97;99160.66;5089808;28;20123;-64
2022/04/18 06:09:50;;;;;;;0.70;0.40;;;;;;;21.11;31.97;99154.69;5089700;28;20470;-64
2022/04/18 06:12:20;;;;;;;0.70;0.57;;;;;;;21.09;32.14;99151.50;5089728;28;20043;-65
2022/04/18 06:14:45;;;;;;;0.90;0.60;;;;;;;21.11;32.10;99154.69;5071014;28;20045;-64
2022/04/18 06:17:11;;;;;;;1.13;0.63;;;;;;;21.08;31.72;99153.50;5089733;28;20047;-63
2022/04/18 06:19:36;;;;;;;1.48;0.70;;;;;;;21.12;31.71;99150.72;5089730;28;20048;-64
2022/04/18 06:22:02;;;;;;;0.40;0.40;;;;;;;21.13;31.93;99150.34;5089571;28;20510;-64
2022/04/18 06:24:28;;;;;;;1.00;0.60;;;;;;;21.14;31.77;99151.16;5089683;28;20043;-64
2022/04/18 06:26:53;;;;;;;0.50;0.40;;;;;;;21.12;31.70;99153.50;5087656;28;20414;-63
2022/04/18 06:29:19;;;;;;;0.73;0.40;;;;;;;21.12;32.03;99156.28;5089533;28;20067;-64
2022/04/18 06:31:46;;;;;;;1.02;0.43;;;;;;;21.14;31.70;99156.69;5089422;28;20044;-64
2022/04/18 06:34:11;;;;;;;1.13;0.60;;;;;;;21.14;31.60;99163.06;5089528;28;20123;-63
2022/04/18 06:36:36;;;;;;;0.60;0.50;;;;;;;21.12;31.57;99159.88;5089430;28;20566;-63
2022/04/18 06:39:03;;;;;;;0.90;0.57;;;;;;;21.14;31.59;99167.84;5089499;28;20040;-63
2022/04/18 06:41:28;;;;;;;0.55;0.40;;;;;;;21.13;31.75;99161.47;5089364;28;20131;-71
2022/04/18 06:43:53;;;;;;;0.47;0.40;;;;;;;21.15;31.82;99164.69;5089321;28;20136;-71
2022/04/18 06:46:19;;;;;;;0.55;0.45;;;;;;;21.16;31.85;99157.94;5089106;28;20044;-71
2022/04/18 06:48:44;;;;;;;0.63;0.40;;;;;;;21.16;31.57;99166.28;5089296;28;20048;-71
2022/04/18 06:51:10;;;;;;;1.13;0.60;;;;;;;21.13;31.83;99155.91;5089230;28;20044;-71
2022/04/18 06:53:35;;;;;;;0.80;0.50;;;;;;;21.16;31.74;99155.16;5089146;28;20857;-71
2022/04/18 06:58:45;;;;;;;0.40;0.40;;;;;;;21.18;31.37;99157.56;5089645;28;20117;-71
2022/04/18 07:01:10;;;;;;;1.00;0.60;;;;;;;21.19;31.29;99159.16;5088906;28;20442;-63
2022/04/18 07:03:36;;;;;;;0.40;0.38;;;;;;;21.18;31.47;99152.00;5088999;28;20106;-63
2022/04/18 07:06:01;;;;;;;0.93;0.40;;;;;;;21.19;31.30;99153.59;5089194;28;20048;-63
2022/04/18 07:08:27;;;;;;;0.93;0.55;;;;;;;21.19;31.50;99159.16;5092481;28;20097;-63
2022/04/18 07:10:52;;;;;;;0.30;0.30;;;;;;;21.17;31.17;99148.41;5092653;28;20040;-71
2022/04/18 07:13:18;;;;;;;0.57;0.47;;;;;;;21.20;31.27;99157.97;5092701;28;20135;-71
2022/04/18 07:15:43;;;;;;;1.00;0.57;;;;;;;21.22;31.17;99152.84;5092627;28;20036;-63
2022/04/18 07:18:09;;;;;;;0.47;0.40;;;;;;;21.21;31.18;99145.66;5092271;28;20056;-63
2022/04/18 07:20:34;;;;;;;0.82;0.50;;;;;;;21.22;31.35;99150.06;5092626;28;20048;-63
2022/04/18 07:23:00;;;;;;;0.45;0.40;;;;;;;21.23;31.13;99142.50;5092555;28;20040;-63
2022/04/18 07:25:25;;;;;;;0.30;0.30;;;;;;;21.22;31.06;99146.44;5092526;28;20044;-63
2022/04/18 07:27:51;;;;;;;0.55;0.30;;;;;;;21.23;31.29;99146.09;5092457;28;20407;-63
2022/04/18 07:30:16;;;;;;;0.30;0.30;;;;;;;21.22;30.98;99140.88;5092555;28;20101;-63
2022/04/18 07:32:43;;;;;;;0.55;0.40;;;;;;;21.24;31.34;99144.09;5092323;28;20047;-63
2022/04/18 07:35:10;;;;;;;0.50;0.40;;;;;;;21.24;30.91;99144.91;5092164;28;20416;-63
2022/04/18 07:37:36;;;;;;;0.75;0.45;;;;;;;21.23;30.98;99137.72;5092282;28;20051;-63
2022/04/18 07:40:01;;;;;;;0.50;0.43;;;;;;;21.25;31.14;99129.78;5092124;28;20048;-63
2022/04/18 07:42:27;;;;;;;0.40;0.35;;;;;;;21.24;31.17;99131.00;5091856;28;20388;-63
2022/04/18 07:44:55;;;;;;;0.40;0.40;;;;;;;21.27;30.93;99138.56;5092128;28;20047;-64
2022/04/18 07:47:20;;;;;;;0.40;0.40;;;;;;;21.27;30.94;99137.75;5091956;28;20040;-63
2022/04/18 07:49:46;;;;;;;0.30;0.30;;;;;;;21.25;30.79;99132.56;5092003;28;20047;-63
2022/04/18 07:52:12;;;;;;;0.47;0.40;;;;;;;21.28;30.89;99128.25;5091802;28;20058;-63
2022/04/18 07:54:38;;;;;;;1.05;0.50;;;;;;;21.28;30.78;99122.69;5091809;28;20130;-63
2022/04/18 07:57:05;;;;;;;0.57;0.40;;;;;;;21.27;30.95;99121.84;5091844;28;20088;-63
2022/04/18 07:59:31;;;;;;;0.68;0.40;;;;;;;21.29;30.58;99127.06;5091579;28;20136;-63
2022/04/18 08:01:56;;;;;;;0.50;0.40;;;;;;;21.29;30.55;99118.72;5091748;28;20043;-63
2022/04/18 08:04:22;;;;;;;0.65;0.50;;;;;;;21.32;30.55;99117.97;5091827;28;20040;-63
2022/04/18 08:06:47;;;;;;;0.95;0.60;;;;;;;21.32;30.67;99124.31;5091780;28;20454;-63
2022/04/18 08:09:13;;;;;;;0.40;0.40;;;;;;;21.32;30.63;99112.41;5091663;28;20036;-63
2022/04/18 08:11:38;;;;;;;1.08;0.40;;;;;;;21.33;30.66;99116.78;5091677;28;20044;-63
2022/04/18 08:14:04;;;;;;;0.60;0.50;;;;;;;21.32;30.48;99115.97;5091643;28;20515;-63
2022/04/18 08:16:29;;;;;;;0.63;0.40;;;;;;;21.29;30.63;99105.63;5091664;28;20430;-63
2022/04/18 08:18:55;;;;;;;0.65;0.50;;;;;;;21.33;30.54;99106.44;5091297;28;20040;-64
2022/04/18 08:21:21;;;;;;;0.68;0.47;;;;;;;21.34;30.43;99110.03;5091444;28;20044;-63
2022/04/18 08:23:49;;;;;;;0.52;0.40;;;;;;;21.33;30.35;99105.66;5091480;28;20047;-64
2022/04/18 08:26:15;;;;;;;0.63;0.47;;;;;;;21.32;30.39;99104.84;5091339;28;20499;-63
2022/04/18 08:28:40;;;;;;;0.73;0.52;;;;;;;21.34;30.56;99096.91;5073137;28;20584;-63
2022/04/18 08:31:07;;;;;;;0.63;0.40;;;;;;;21.36;30.50;99102.09;5091464;28;20036;-63
2022/04/18 08:33:33;;;;;;;0.50;0.40;;;;;;;21.35;30.48;99101.28;5091305;28;20087;-64
2022/04/18 08:36:01;;;;;;;0.52;0.50;;;;;;;21.36;30.37;99097.34;5091230;28;20078;-63
2022/04/18 08:38:27;;;;;;;0.50;0.40;;;;;;;21.37;30.15;99101.72;5091296;28;20040;-63
2022/04/18 08:40:56;;;;;;;0.50;0.40;;;;;;;21.38;30.17;99096.94;5091315;28;20089;-64
2022/04/18 08:43:22;;;;;;;1.00;0.70;;;;;;;21.38;30.09;99094.97;5091110;28;20040;-64
2022/04/18 08:45:48;;;;;;;0.75;0.40;;;;;;;21.38;30.22;99091.38;5090994;28;20074;-63
2022/04/18 08:53:43;;;;;;;1.20;0.50;;;;;;;21.40;30.29;99081.47;5087493;28;20541;-64
2022/04/18 08:56:08;;;;;;;1.65;0.55;;;;;;;21.38;30.41;99072.72;5090849;28;20072;-71
2022/04/18 08:58:34;;;;;;;0.28;0.28;;;;;;;21.41;30.22;99076.69;5091029;28;20130;-71
2022/04/18 09:01:01;;;;;;;0.30;0.30;;;;;;;21.43;30.26;99088.22;5090785;28;20048;-71
2022/04/18 09:03:27;;;;;;;0.45;0.40;;;;;;;21.42;30.27;99081.84;5090993;28;20151;-63
2022/04/18 09:06:08;;;;;;;0.77;0.55;;;;;;;21.44;30.09;99075.94;5090787;28;20454;-71
2022/04/18 09:08:41;;;;;;;0.40;0.38;;;;;;;21.43;30.33;99069.56;5090774;28;20345;-71
2022/04/18 09:11:07;;;;;;;0.65;0.50;;;;;;;21.46;29.98;99062.41;5090844;28;20131;-71
2022/04/18 09:13:33;;;;;;;0.65;0.45;;;;;;;21.47;30.31;99057.66;5090437;28;20492;-63
2022/04/18 09:15:59;;;;;;;0.57;0.47;;;;;;;21.48;30.07;99065.59;5090394;28;20040;-63
2022/04/18 09:18:24;;;;;;;0.60;0.40;;;;;;;21.50;30.21;99065.22;5090154;28;20427;-63
2022/04/18 09:20:51;;;;;;;0.80;0.50;;;;;;;21.48;30.15;99059.25;5089644;28;20044;-64
2022/04/18 09:23:34;;;;;;;0.45;0.40;;;;;;;21.52;30.26;99057.28;5090700;28;20042;-63
2022/04/18 09:26:08;;;;;;;0.40;0.40;;;;;;;21.53;29.99;99050.53;5090677;28;20126;-64
2022/04/18 09:28:40;;;;;;;1.92;0.47;;;;;;;21.54;30.19;99041.78;5090287;28;20109;-63
2022/04/18 09:31:08;;;;;;;0.70;0.47;;;;;;;21.54;30.25;99050.16;5089814;28;20075;-63
2022/04/18 09:33:44;;;;;;;0.60;0.40;;;;;;;21.53;30.14;99044.97;5090462;28;20458;-63
2022/04/18 09:36:11;;;;;;;0.90;0.60;;;;;;;21.55;30.23;99039.81;5090511;28;20086;-64
2022/04/18 09:38:39;;;;;;;0.88;0.50;;;;;;;21.56;30.18;99036.63;5090304;28;20067;-63
2022/04/18 09:41:06;;;;;;;1.40;0.60;;;;;;;21.55;29.96;99035.03;5090269;28;20046;-63
2022/04/18 09:43:43;;;;;;;0.80;0.45;;;;;;;21.57;30.00;99040.22;5090401;28;20047;-63
2022/04/18 09:46:09;;;;;;;0.40;0.40;;;;;;;21.57;30.13;99029.06;5090259;28;20106;-63
2022/04/18 09:48:35;;;;;;;0.60;0.50;;;;;;;21.54;30.24;99027.09;5090125;28;20055;-63
2022/04/18 09:51:08;;;;;;;0.60;0.40;;;;;;;21.59;30.09;99029.50;5090306;28;20044;-64
2022/04/18 09:53:33;;;;;;;0.52;0.40;;;;;;;21.60;29.99;99026.34;5088593;28;20043;-63
2022/04/18 09:56:01;;;;;;;0.47;0.40;;;;;;;21.61;29.84;99019.56;5090071;28;20461;-71
2022/04/18 09:58:27;;;;;;;0.82;0.50;;;;;;;21.63;30.20;99021.97;5090076;28;20056;-71
2022/04/18 10:00:52;;;;;;;0.52;0.43;;;;;;;21.65;29.73;99019.59;5089815;28;20036;-64
2022/04/18 10:03:19;;;;;;;0.95;0.50;;;;;;;21.64;29.80;99013.22;5090117;28;20066;-71
2022/04/18 10:05:47;;;;;;;0.90;0.50;;;;;;;21.63;29.96;99008.84;5089696;28;20044;-71
2022/04/18 10:08:14;;;;;;;0.60;0.35;;;;;;;21.66;29.82;99008.06;5089610;28;20059;-63
2022/04/18 10:10:43;;;;;;;0.88;0.50;;;;;;;21.68;29.94;99004.91;5089659;28;20052;-63
2022/04/18 10:13:09;;;;;;;0.63;0.45;;;;;;;21.68;29.87;98996.53;5089590;28;20044;-63
2022/04/18 10:15:36;;;;;;;0.40;0.30;;;;;;;21.68;29.92;98991.78;5089679;28;20514;-63
2022/04/18 10:18:05;;;;;;;0.98;0.52;;;;;;;21.68;29.96;98991.78;5089599;28;20047;-64
2022/04/18 10:20:46;;;;;;;0.30;0.30;;;;;;;21.70;29.82;98983.81;5089700;28;20048;-71
2022/04/18 10:23:30;;;;;;;0.82;0.45;;;;;;;21.70;29.82;98983.03;5088698;28;20062;-71
2022/04/18 10:26:01;;;;;;;0.52;0.47;;;;;;;21.72;30.11;98980.66;5089778;28;20097;-71
2022/04/18 10:28:31;;;;;;;0.55;0.43;;;;;;;21.70;30.18;98977.47;5089430;28;20056;-71
2022/04/18 10:31:01;;;;;;;0.38;0.38;;;;;;;21.73;29.79;98978.69;5089469;28;20108;-64
2022/04/18 10:33:26;;;;;;;0.82;0.50;;;;;;;21.73;29.86;98968.34;5089544;28;20044;-64
2022/04/18 10:35:59;;;;;;;0.73;0.50;;;;;;;21.75;29.69;98960.38;5089720;28;20048;-64
2022/04/18 10:38:26;;;;;;;0.85;0.50;;;;;;;21.75;29.97;98957.59;5088230;28;20500;-64
2022/04/18 10:41:14;;;;;;;0.98;0.55;;;;;;;21.76;30.08;98950.06;5089524;28;20048;-64
2022/04/18 10:44:02;;;;;;;0.43;0.40;;;;;;;21.78;30.00;98950.44;5089202;28;20121;-64
2022/04/18 10:46:28;;;;;;;0.68;0.50;;;;;;;21.77;29.97;98937.72;5074493;28;20499;-64
2022/04/18 10:49:03;;;;;;;0.85;0.50;;;;;;;21.77;29.96;98930.16;5089284;28;20529;-64
2022/04/18 10:51:38;;;;;;;0.90;0.57;;;;;;;21.78;29.95;98928.19;5089170;28;20093;-64
2022/04/18 10:54:15;;;;;;;0.65;0.57;;;;;;;21.80;29.83;98923.81;5089047;28;20126;-64
2022/04/18 10:57:13;;;;;;;1.05;0.57;;;;;;;21.78;29.95;98917.84;5087383;28;20054;-64
2022/04/18 10:59:42;;;;;;;0.75;0.45;;;;;;;21.80;30.08;98918.25;5089181;28;20064;-64
2022/04/18 11:02:29;;;;;;;1.00;0.60;;;;;;;21.81;30.05;98917.06;5089600;28;20048;-64
2022/04/18 11:04:54;;;;;;;0.93;0.60;;;;;;;21.82;29.90;98910.31;5089126;28;20131;-64
2022/04/18 11:07:37;;;;;;;0.50;0.35;;;;;;;21.83;29.81;98913.88;5088938;28;20054;-64
2022/04/18 11:10:18;;;;;;;0.82;0.52;;;;;;;21.84;30.04;98898.75;5087547;28;20040;-71
2022/04/18 11:12:44;;;;;;;0.77;0.60;;;;;;;21.85;30.05;98908.72;5089128;28;20044;-71
2022/04/18 11:15:09;;;;;;;0.93;0.50;;;;;;;21.85;29.86;98897.56;5086971;28;20036;-71
2022/04/18 11:17:40;;;;;;;0.47;0.40;;;;;;;21.83;29.96;98877.69;5088755;28;20158;-71
2022/04/18 11:20:27;;;;;;;0.77;0.50;;;;;;;21.90;29.99;98886.06;5088899;28;20052;-64
2022/04/18 11:23:22;;;;;;;0.70;0.50;;;;;;;21.89;30.02;98879.69;5088814;28;20044;-64
2022/04/18 11:25:56;;;;;;;1.00;0.50;;;;;;;21.89;30.04;98879.69;5087667;28;20487;-64
2022/04/18 11:28:23;;;;;;;0.63;0.40;;;;;;;21.89;30.15;98868.56;5088811;28;20044;-64
2022/04/18 11:30:49;;;;;;;1.38;0.60;;;;;;;21.90;30.31;98870.16;5088599;28;20097;-71
2022/04/18 11:33:15;;;;;;;0.90;0.50;;;;;;;21.91;30.01;98866.16;5088719;28;20048;-71
2022/04/18 11:35:41;;;;;;;0.85;0.57;;;;;;;21.89;30.27;98851.84;5088649;28;20381;-64
2022/04/18 11:38:08;;;;;;;0.60;0.50;;;;;;;21.93;30.04;98857.41;5088715;28;20052;-64
2022/04/18 11:40:38;;;;;;;1.00;0.60;;;;;;;21.94;30.13;98851.47;5088677;28;20047;-71
2022/04/18 11:43:12;;;;;;;0.88;0.50;;;;;;;21.94;30.01;98848.69;5088556;28;20051;-71
2022/04/18 11:45:37;;;;;;;0.85;0.50;;;;;;;21.96;29.97;98845.50;5088364;28;20078;-71
2022/04/18 11:48:04;;;;;;;0.70;0.50;;;;;;;21.97;30.29;98842.31;5088426;28;20075;-71
2022/04/18 11:50:30;;;;;;;0.60;0.43;;;;;;;21.98;30.10;98838.31;5088610;28;20535;-71
2022/04/18 11:53:06;;;;;;;0.85;0.52;;;;;;;21.98;30.22;98831.97;5089791;28;20048;-71